sensor_id;sensor_type;location;lat;lon;timestamp;pressure;altitude;pressure_sealevel;temperature;humidity
51359;BME280;37448;51.588;7.248;2023-06-14T00:00:55;100770.41;;;19.01;42.44
51359;BME280;37448;51.588;7.248;2023-06-14T00:02:56;100768.06;;;18.94;42.29
51359;BME280;37448;51.588;7.248;2023-06-14T00:04:57;100771.03;;;18.88;42.42
51359;BME280;37448;51.588;7.248;2023-06-14T00:06:59;100775.56;;;18.86;42.35
51359;BME280;37448;51.588;7.248;2023-06-14T00:09:00;100767.53;;;18.88;42.07
51359;BME280;37448;51.588;7.248;2023-06-14T00:11:00;100779.47;;;18.79;42.04
51359;BME280;37448;51.588;7.248;2023-06-14T00:13:03;100774.53;;;18.73;41.73
51359;BME280;37448;51.588;7.248;2023-06-14T00:15:05;100783.06;;;18.78;41.79
51359;BME280;37448;51.588;7.248;2023-06-14T00:17:06;100783.53;;;18.69;41.99
51359;BME280;37448;51.588;7.248;2023-06-14T00:19:08;100782.63;;;18.70;41.98
51359;BME280;37448;51.588;7.248;2023-06-14T00:21:08;100787.13;;;18.68;41.74
51359;BME280;37448;51.588;7.248;2023-06-14T00:23:10;100792.41;;;18.68;41.37
51359;BME280;37448;51.588;7.248;2023-06-14T00:25:11;100785.69;;;18.62;42.03
51359;BME280;37448;51.588;7.248;2023-06-14T00:27:11;100786.28;;;18.67;41.86
51359;BME280;37448;51.588;7.248;2023-06-14T00:29:11;100790.03;;;18.63;41.81
51359;BME280;37448;51.588;7.248;2023-06-14T00:31:12;100796.31;;;18.60;41.67
51359;BME280;37448;51.588;7.248;2023-06-14T00:33:12;100792.84;;;18.60;41.67
51359;BME280;37448;51.588;7.248;2023-06-14T00:35:13;100787.78;;;18.55;41.80
51359;BME280;37448;51.588;7.248;2023-06-14T00:37:14;100790.50;;;18.54;41.63
51359;BME280;37448;51.588;7.248;2023-06-14T00:39:16;100793.25;;;18.52;41.37
51359;BME280;37448;51.588;7.248;2023-06-14T00:41:17;100796.13;;;18.47;41.66
51359;BME280;37448;51.588;7.248;2023-06-14T00:43:17;100793.56;;;18.46;41.70
51359;BME280;37448;51.588;7.248;2023-06-14T00:45:18;100791.00;;;18.44;41.74
51359;BME280;37448;51.588;7.248;2023-06-14T00:47:18;100796.34;;;18.43;41.59
51359;BME280;37448;51.588;7.248;2023-06-14T00:49:26;100793.34;;;18.33;41.87
51359;BME280;37448;51.588;7.248;2023-06-14T00:51:27;100797.78;;;18.32;41.77
51359;BME280;37448;51.588;7.248;2023-06-14T00:53:28;100795.19;;;18.31;41.91
51359;BME280;37448;51.588;7.248;2023-06-14T00:55:29;100790.72;;;18.33;41.75
51359;BME280;37448;51.588;7.248;2023-06-14T00:57:30;100800.72;;;18.26;41.89
51359;BME280;37448;51.588;7.248;2023-06-14T00:59:30;100801.66;;;18.25;42.34
51359;BME280;37448;51.588;7.248;2023-06-14T01:01:31;100806.09;;;18.25;41.50
51359;BME280;37448;51.588;7.248;2023-06-14T01:03:34;100804.53;;;18.20;42.14
51359;BME280;37448;51.588;7.248;2023-06-14T01:05:34;100800.25;;;18.18;42.01
51359;BME280;37448;51.588;7.248;2023-06-14T01:12:53;100810.69;;;18.03;42.11
51359;BME280;37448;51.588;7.248;2023-06-14T01:14:56;100808.31;;;17.97;42.22
51359;BME280;37448;51.588;7.248;2023-06-14T01:16:58;100819.03;;;17.94;42.23
51359;BME280;37448;51.588;7.248;2023-06-14T01:19:00;100804.88;;;17.95;42.49
51359;BME280;37448;51.588;7.248;2023-06-14T01:21:02;100805.19;;;17.89;42.61
51359;BME280;37448;51.588;7.248;2023-06-14T01:23:09;100815.97;;;17.84;42.62
51359;BME280;37448;51.588;7.248;2023-06-14T01:25:12;100815.06;;;17.85;42.80
51359;BME280;37448;51.588;7.248;2023-06-14T01:27:13;100808.38;;;17.78;42.74
51359;BME280;37448;51.588;7.248;2023-06-14T01:29:14;100814.41;;;17.80;42.88
51359;BME280;37448;51.588;7.248;2023-06-14T01:31:20;100814.66;;;17.75;42.97
51359;BME280;37448;51.588;7.248;2023-06-14T01:33:26;100812.09;;;17.74;43.18
51359;BME280;37448;51.588;7.248;2023-06-14T01:35:27;100815.88;;;17.68;43.48
51359;BME280;37448;51.588;7.248;2023-06-14T01:37:29;100809.97;;;17.63;43.68
51359;BME280;37448;51.588;7.248;2023-06-14T01:39:30;100808.41;;;17.59;44.10
51359;BME280;37448;51.588;7.248;2023-06-14T01:41:32;100806.69;;;17.58;43.56
51359;BME280;37448;51.588;7.248;2023-06-14T01:43:34;100812.44;;;17.48;44.11
51359;BME280;37448;51.588;7.248;2023-06-14T01:45:36;100807.44;;;17.42;44.07
51359;BME280;37448;51.588;7.248;2023-06-14T01:47:36;100808.31;;;17.43;44.12
51359;BME280;37448;51.588;7.248;2023-06-14T01:49:38;100810.00;;;17.44;43.97
51359;BME280;37448;51.588;7.248;2023-06-14T01:51:39;100811.16;;;17.38;44.21
51359;BME280;37448;51.588;7.248;2023-06-14T01:53:39;100812.13;;;17.35;44.19
51359;BME280;37448;51.588;7.248;2023-06-14T01:55:40;100810.44;;;17.34;44.56
51359;BME280;37448;51.588;7.248;2023-06-14T01:57:43;100807.00;;;17.32;44.31
51359;BME280;37448;51.588;7.248;2023-06-14T01:59:44;100808.19;;;17.27;44.44
51359;BME280;37448;51.588;7.248;2023-06-14T02:01:48;100813.72;;;17.20;44.90
51359;BME280;37448;51.588;7.248;2023-06-14T02:03:48;100812.16;;;17.16;44.73
51359;BME280;37448;51.588;7.248;2023-06-14T02:05:50;100808.00;;;17.11;44.90
51359;BME280;37448;51.588;7.248;2023-06-14T02:07:51;100805.75;;;17.03;45.12
51359;BME280;37448;51.588;7.248;2023-06-14T02:09:52;100809.31;;;17.02;45.02
51359;BME280;37448;51.588;7.248;2023-06-14T02:11:52;100815.56;;;16.99;45.38
51359;BME280;37448;51.588;7.248;2023-06-14T02:13:53;100812.13;;;16.97;45.03
51359;BME280;37448;51.588;7.248;2023-06-14T02:15:53;100811.53;;;16.90;45.15
51359;BME280;37448;51.588;7.248;2023-06-14T02:17:55;100816.09;;;16.87;45.18
51359;BME280;37448;51.588;7.248;2023-06-14T02:19:56;100810.91;;;16.85;45.21
51359;BME280;37448;51.588;7.248;2023-06-14T02:21:57;100817.94;;;16.85;45.23
51359;BME280;37448;51.588;7.248;2023-06-14T02:23:57;100815.00;;;16.72;45.58
51359;BME280;37448;51.588;7.248;2023-06-14T02:25:58;100814.66;;;16.79;45.19
51359;BME280;37448;51.588;7.248;2023-06-14T02:28:00;100821.97;;;16.73;45.84
51359;BME280;37448;51.588;7.248;2023-06-14T02:30:01;100818.88;;;16.63;45.59
51359;BME280;37448;51.588;7.248;2023-06-14T02:32:02;100813.63;;;16.63;45.84
51359;BME280;37448;51.588;7.248;2023-06-14T02:34:03;100820.69;;;16.62;45.70
51359;BME280;37448;51.588;7.248;2023-06-14T02:36:03;100820.63;;;16.64;45.41
51359;BME280;37448;51.588;7.248;2023-06-14T02:38:04;100814.78;;;16.57;46.05
51359;BME280;37448;51.588;7.248;2023-06-14T02:40:05;100823.59;;;16.56;45.69
51359;BME280;37448;51.588;7.248;2023-06-14T02:42:06;100815.75;;;16.55;45.56
51359;BME280;37448;51.588;7.248;2023-06-14T02:44:07;100814.97;;;16.53;45.62
51359;BME280;37448;51.588;7.248;2023-06-14T02:46:07;100821.09;;;16.53;45.39
51359;BME280;37448;51.588;7.248;2023-06-14T02:48:07;100819.63;;;16.46;45.71
51359;BME280;37448;51.588;7.248;2023-06-14T02:50:08;100815.44;;;16.42;45.67
51359;BME280;37448;51.588;7.248;2023-06-14T02:52:09;100817.13;;;16.43;46.08
51359;BME280;37448;51.588;7.248;2023-06-14T02:54:09;100816.34;;;16.41;46.09
51359;BME280;37448;51.588;7.248;2023-06-14T02:56:12;100821.88;;;16.34;46.33
51359;BME280;37448;51.588;7.248;2023-06-14T02:58:12;100826.50;;;16.29;46.84
51359;BME280;37448;51.588;7.248;2023-06-14T03:00:13;100826.56;;;16.28;46.46
51359;BME280;37448;51.588;7.248;2023-06-14T03:02:15;100828.31;;;16.27;46.44
51359;BME280;37448;51.588;7.248;2023-06-14T03:04:17;100830.16;;;16.25;46.60
51359;BME280;37448;51.588;7.248;2023-06-14T03:06:17;100829.31;;;16.25;46.59
51359;BME280;37448;51.588;7.248;2023-06-14T03:08:19;100837.69;;;16.14;46.45
51359;BME280;37448;51.588;7.248;2023-06-14T03:10:21;100843.69;;;16.17;46.57
51359;BME280;37448;51.588;7.248;2023-06-14T03:12:22;100845.50;;;16.15;47.13
51359;BME280;37448;51.588;7.248;2023-06-14T03:14:24;100842.81;;;16.17;46.64
51359;BME280;37448;51.588;7.248;2023-06-14T03:16:24;100848.03;;;16.18;47.07
51359;BME280;37448;51.588;7.248;2023-06-14T03:18:25;100846.25;;;16.19;46.81
51359;BME280;37448;51.588;7.248;2023-06-14T03:20:27;100856.13;;;16.14;47.13
51359;BME280;37448;51.588;7.248;2023-06-14T03:22:30;100854.59;;;16.08;47.47
51359;BME280;37448;51.588;7.248;2023-06-14T03:24:30;100855.59;;;16.05;47.34
51359;BME280;37448;51.588;7.248;2023-06-14T03:26:36;100852.25;;;16.00;47.73
51359;BME280;37448;51.588;7.248;2023-06-14T03:28:37;100862.66;;;16.03;47.47
51359;BME280;37448;51.588;7.248;2023-06-14T03:30:37;100861.16;;;15.98;47.50
51359;BME280;37448;51.588;7.248;2023-06-14T03:32:38;100858.78;;;15.91;47.95
51359;BME280;37448;51.588;7.248;2023-06-14T03:34:39;100859.59;;;15.93;47.87
51359;BME280;37448;51.588;7.248;2023-06-14T03:36:41;100863.22;;;15.89;48.08
51359;BME280;37448;51.588;7.248;2023-06-14T03:38:42;100863.19;;;15.91;48.00
51359;BME280;37448;51.588;7.248;2023-06-14T03:40:42;100870.28;;;15.89;48.12
51359;BME280;37448;51.588;7.248;2023-06-14T03:42:43;100879.09;;;15.88;48.25
51359;BME280;37448;51.588;7.248;2023-06-14T03:44:44;100883.38;;;15.90;48.22
51359;BME280;37448;51.588;7.248;2023-06-14T03:46:45;100893.81;;;15.93;48.40
51359;BME280;37448;51.588;7.248;2023-06-14T03:48:46;100887.69;;;15.93;47.83
51359;BME280;37448;51.588;7.248;2023-06-14T03:50:47;100890.44;;;15.90;48.03
51359;BME280;37448;51.588;7.248;2023-06-14T03:52:48;100893.50;;;15.77;48.22
51359;BME280;37448;51.588;7.248;2023-06-14T03:54:50;100894.22;;;15.83;48.19
51359;BME280;37448;51.588;7.248;2023-06-14T03:56:52;100896.75;;;15.84;48.12
51359;BME280;37448;51.588;7.248;2023-06-14T03:58:53;100896.63;;;15.89;48.20
51359;BME280;37448;51.588;7.248;2023-06-14T04:00:57;100899.91;;;15.94;47.62
51359;BME280;37448;51.588;7.248;2023-06-14T04:02:58;100894.78;;;15.91;48.16
51359;BME280;37448;51.588;7.248;2023-06-14T04:04:59;100894.78;;;15.91;48.22
51359;BME280;37448;51.588;7.248;2023-06-14T04:06:59;100901.97;;;15.86;48.51
51359;BME280;37448;51.588;7.248;2023-06-14T04:09:00;100908.38;;;15.78;48.57
51359;BME280;37448;51.588;7.248;2023-06-14T04:11:02;100903.59;;;15.90;48.34
51359;BME280;37448;51.588;7.248;2023-06-14T04:13:02;100901.06;;;15.87;48.40
51359;BME280;37448;51.588;7.248;2023-06-14T04:15:04;100915.06;;;15.89;48.50
51359;BME280;37448;51.588;7.248;2023-06-14T04:17:08;100925.59;;;15.87;48.59
51359;BME280;37448;51.588;7.248;2023-06-14T04:19:11;100918.81;;;15.82;48.96
51359;BME280;37448;51.588;7.248;2023-06-14T04:21:11;100924.88;;;15.84;49.49
51359;BME280;37448;51.588;7.248;2023-06-14T04:23:13;100924.94;;;15.82;49.53
51359;BME280;37448;51.588;7.248;2023-06-14T04:25:14;100938.59;;;15.93;48.86
51359;BME280;37448;51.588;7.248;2023-06-14T04:27:16;100928.97;;;15.92;48.80
51359;BME280;37448;51.588;7.248;2023-06-14T04:29:25;100926.13;;;15.97;48.66
51359;BME280;37448;51.588;7.248;2023-06-14T04:31:33;100932.31;;;15.96;48.79
51359;BME280;37448;51.588;7.248;2023-06-14T04:33:35;100933.00;;;16.01;48.98
51359;BME280;37448;51.588;7.248;2023-06-14T04:35:44;100934.69;;;16.02;49.18
51359;BME280;37448;51.588;7.248;2023-06-14T04:37:47;100938.97;;;16.06;49.35
51359;BME280;37448;51.588;7.248;2023-06-14T04:39:48;100945.25;;;16.02;49.14
51359;BME280;37448;51.588;7.248;2023-06-14T04:41:49;100940.66;;;16.07;49.11
51359;BME280;37448;51.588;7.248;2023-06-14T04:43:57;100952.00;;;16.10;49.61
51359;BME280;37448;51.588;7.248;2023-06-14T04:45:59;100948.31;;;16.14;49.07
51359;BME280;37448;51.588;7.248;2023-06-14T04:48:01;100950.16;;;16.12;48.98
51359;BME280;37448;51.588;7.248;2023-06-14T04:50:02;100951.63;;;16.19;49.49
51359;BME280;37448;51.588;7.248;2023-06-14T04:52:05;100950.56;;;16.23;49.74
51359;BME280;37448;51.588;7.248;2023-06-14T04:54:09;100957.25;;;16.32;49.07
51359;BME280;37448;51.588;7.248;2023-06-14T04:56:13;100953.53;;;16.38;49.03
51359;BME280;37448;51.588;7.248;2023-06-14T04:58:13;100951.63;;;16.41;48.96
51359;BME280;37448;51.588;7.248;2023-06-14T05:00:14;100952.22;;;16.48;48.83
51359;BME280;37448;51.588;7.248;2023-06-14T05:02:14;100946.72;;;16.54;49.02
51359;BME280;37448;51.588;7.248;2023-06-14T05:04:15;100951.84;;;16.57;49.22
51359;BME280;37448;51.588;7.248;2023-06-14T05:06:16;100950.91;;;16.58;49.44
51359;BME280;37448;51.588;7.248;2023-06-14T05:08:17;100955.13;;;16.62;49.13
51359;BME280;37448;51.588;7.248;2023-06-14T05:10:18;100954.88;;;16.69;48.93
51359;BME280;37448;51.588;7.248;2023-06-14T05:12:18;100957.13;;;16.78;47.76
51359;BME280;37448;51.588;7.248;2023-06-14T05:14:19;100956.22;;;16.79;48.32
51359;BME280;37448;51.588;7.248;2023-06-14T05:16:20;100956.53;;;16.92;47.60
51359;BME280;37448;51.588;7.248;2023-06-14T05:18:25;100958.41;;;16.90;47.16
51359;BME280;37448;51.588;7.248;2023-06-14T05:20:28;100963.41;;;16.96;47.56
51359;BME280;37448;51.588;7.248;2023-06-14T05:22:28;100958.06;;;17.18;46.72
51359;BME280;37448;51.588;7.248;2023-06-14T05:24:29;100958.63;;;17.46;46.64
51359;BME280;37448;51.588;7.248;2023-06-14T05:26:32;100966.69;;;17.81;45.79
51359;BME280;37448;51.588;7.248;2023-06-14T05:28:33;100967.31;;;18.25;44.54
51359;BME280;37448;51.588;7.248;2023-06-14T05:30:34;100961.84;;;18.47;43.72
51359;BME280;37448;51.588;7.248;2023-06-14T05:32:34;100962.59;;;18.84;43.53
51359;BME280;37448;51.588;7.248;2023-06-14T05:34:35;100961.91;;;19.16;42.63
51359;BME280;37448;51.588;7.248;2023-06-14T05:36:35;100967.25;;;19.32;42.84
51359;BME280;37448;51.588;7.248;2023-06-14T05:38:37;100966.09;;;19.54;41.29
51359;BME280;37448;51.588;7.248;2023-06-14T05:40:37;100972.28;;;19.70;41.72
51359;BME280;37448;51.588;7.248;2023-06-14T05:42:37;100968.34;;;19.77;41.09
51359;BME280;37448;51.588;7.248;2023-06-14T05:44:38;100967.28;;;20.14;40.34
51359;BME280;37448;51.588;7.248;2023-06-14T05:46:38;100973.28;;;19.84;40.25
51359;BME280;37448;51.588;7.248;2023-06-14T05:48:40;100974.31;;;20.29;39.88
51359;BME280;37448;51.588;7.248;2023-06-14T05:50:40;100978.94;;;20.42;39.97
51359;BME280;37448;51.588;7.248;2023-06-14T05:52:40;100975.69;;;20.67;39.71
51359;BME280;37448;51.588;7.248;2023-06-14T05:54:41;100973.19;;;20.80;39.56
51359;BME280;37448;51.588;7.248;2023-06-14T05:56:41;100973.44;;;21.06;39.03
51359;BME280;37448;51.588;7.248;2023-06-14T05:58:41;100974.22;;;21.22;39.15
51359;BME280;37448;51.588;7.248;2023-06-14T06:00:42;100981.41;;;21.49;37.55
51359;BME280;37448;51.588;7.248;2023-06-14T06:02:43;100976.97;;;21.50;37.77
51359;BME280;37448;51.588;7.248;2023-06-14T06:04:44;100969.66;;;21.39;37.48
51359;BME280;37448;51.588;7.248;2023-06-14T06:06:44;100977.25;;;21.60;36.91
51359;BME280;37448;51.588;7.248;2023-06-14T06:08:45;100977.03;;;21.77;36.55
51359;BME280;37448;51.588;7.248;2023-06-14T06:10:45;100979.91;;;21.74;37.02
51359;BME280;37448;51.588;7.248;2023-06-14T06:12:46;100983.06;;;22.08;37.06
51359;BME280;37448;51.588;7.248;2023-06-14T06:14:47;100993.03;;;22.05;36.27
51359;BME280;37448;51.588;7.248;2023-06-14T06:16:47;100993.31;;;22.15;36.45
51359;BME280;37448;51.588;7.248;2023-06-14T06:18:48;100988.28;;;22.37;35.78
51359;BME280;37448;51.588;7.248;2023-06-14T06:20:48;100988.88;;;22.28;36.39
51359;BME280;37448;51.588;7.248;2023-06-14T06:22:48;100986.59;;;22.36;36.12
51359;BME280;37448;51.588;7.248;2023-06-14T06:24:49;100988.06;;;22.41;35.67
51359;BME280;37448;51.588;7.248;2023-06-14T06:26:49;100986.22;;;22.56;35.77
51359;BME280;37448;51.588;7.248;2023-06-14T06:28:50;100980.97;;;22.94;35.04
51359;BME280;37448;51.588;7.248;2023-06-14T06:30:50;100986.28;;;22.94;34.71
51359;BME280;37448;51.588;7.248;2023-06-14T06:32:51;100992.22;;;22.59;35.29
51359;BME280;37448;51.588;7.248;2023-06-14T06:34:51;100993.75;;;22.89;34.89
51359;BME280;37448;51.588;7.248;2023-06-14T06:36:52;100997.16;;;23.17;34.44
51359;BME280;37448;51.588;7.248;2023-06-14T06:38:52;101001.31;;;23.08;34.33
51359;BME280;37448;51.588;7.248;2023-06-14T06:40:53;101000.81;;;23.29;34.01
51359;BME280;37448;51.588;7.248;2023-06-14T06:42:54;101008.09;;;22.74;34.93
51359;BME280;37448;51.588;7.248;2023-06-14T06:44:55;101007.75;;;23.32;34.21
51359;BME280;37448;51.588;7.248;2023-06-14T06:46:55;101015.75;;;23.45;34.11
51359;BME280;37448;51.588;7.248;2023-06-14T06:48:56;101010.06;;;23.49;33.90
51359;BME280;37448;51.588;7.248;2023-06-14T06:50:56;101018.19;;;23.61;34.03
51359;BME280;37448;51.588;7.248;2023-06-14T06:52:56;101015.16;;;23.78;34.05
51359;BME280;37448;51.588;7.248;2023-06-14T06:54:57;101016.31;;;23.87;33.69
51359;BME280;37448;51.588;7.248;2023-06-14T06:56:58;101020.34;;;23.93;32.78
51359;BME280;37448;51.588;7.248;2023-06-14T06:58:59;101021.97;;;23.83;33.18
51359;BME280;37448;51.588;7.248;2023-06-14T07:00:59;101024.94;;;24.04;32.60
51359;BME280;37448;51.588;7.248;2023-06-14T07:02:59;101024.09;;;24.03;32.60
51359;BME280;37448;51.588;7.248;2023-06-14T07:05:00;101021.63;;;24.00;32.65
51359;BME280;37448;51.588;7.248;2023-06-14T07:07:00;101028.78;;;23.87;32.92
51359;BME280;37448;51.588;7.248;2023-06-14T07:09:01;101023.69;;;23.84;33.01
51359;BME280;37448;51.588;7.248;2023-06-14T07:11:01;101032.47;;;23.97;32.51
51359;BME280;37448;51.588;7.248;2023-06-14T07:13:02;101036.69;;;24.01;32.51
51359;BME280;37448;51.588;7.248;2023-06-14T07:15:04;101041.53;;;24.20;32.29
51359;BME280;37448;51.588;7.248;2023-06-14T07:17:06;101034.16;;;24.24;31.85
51359;BME280;37448;51.588;7.248;2023-06-14T07:19:06;101029.94;;;24.08;32.20
51359;BME280;37448;51.588;7.248;2023-06-14T07:21:07;101037.88;;;23.71;33.02
51359;BME280;37448;51.588;7.248;2023-06-14T07:23:07;101030.44;;;23.63;33.13
51359;BME280;37448;51.588;7.248;2023-06-14T07:25:09;101030.03;;;23.57;33.15
51359;BME280;37448;51.588;7.248;2023-06-14T07:27:09;101034.81;;;24.15;32.54
51359;BME280;37448;51.588;7.248;2023-06-14T07:29:10;101038.34;;;24.40;32.75
51359;BME280;37448;51.588;7.248;2023-06-14T07:31:11;101029.72;;;24.60;31.76
51359;BME280;37448;51.588;7.248;2023-06-14T07:33:12;101038.06;;;24.31;32.13
51359;BME280;37448;51.588;7.248;2023-06-14T07:35:13;101040.78;;;24.43;31.56
51359;BME280;37448;51.588;7.248;2023-06-14T07:37:14;101031.25;;;24.76;31.31
51359;BME280;37448;51.588;7.248;2023-06-14T07:39:14;101029.56;;;24.75;31.29
51359;BME280;37448;51.588;7.248;2023-06-14T07:41:14;101043.41;;;24.80;31.93
51359;BME280;37448;51.588;7.248;2023-06-14T07:43:15;101035.06;;;24.96;30.49
51359;BME280;37448;51.588;7.248;2023-06-14T07:45:15;101030.19;;;24.54;31.67
51359;BME280;37448;51.588;7.248;2023-06-14T07:47:16;101039.38;;;24.50;31.95
51359;BME280;37448;51.588;7.248;2023-06-14T07:49:16;101034.00;;;24.99;31.52
51359;BME280;37448;51.588;7.248;2023-06-14T07:51:17;101029.88;;;25.17;31.40
51359;BME280;37448;51.588;7.248;2023-06-14T07:53:17;101035.63;;;24.52;31.92
51359;BME280;37448;51.588;7.248;2023-06-14T07:55:17;101029.88;;;25.06;31.36
51359;BME280;37448;51.588;7.248;2023-06-14T07:57:18;101036.00;;;24.59;31.52
51359;BME280;37448;51.588;7.248;2023-06-14T07:59:20;101040.25;;;24.75;31.18
51359;BME280;37448;51.588;7.248;2023-06-14T08:01:21;101037.13;;;24.92;31.05
51359;BME280;37448;51.588;7.248;2023-06-14T08:03:24;101026.56;;;25.61;29.71
51359;BME280;37448;51.588;7.248;2023-06-14T08:05:25;101032.59;;;25.29;30.44
51359;BME280;37448;51.588;7.248;2023-06-14T08:07:29;101036.94;;;25.18;30.81
51359;BME280;37448;51.588;7.248;2023-06-14T08:09:29;101037.34;;;25.36;30.28
51359;BME280;37448;51.588;7.248;2023-06-14T08:11:30;101038.41;;;25.22;29.55
51359;BME280;37448;51.588;7.248;2023-06-14T08:13:30;101038.97;;;25.50;29.21
51359;BME280;37448;51.588;7.248;2023-06-14T08:15:31;101030.94;;;25.62;27.09
51359;BME280;37448;51.588;7.248;2023-06-14T08:17:31;101034.94;;;25.68;27.83
51359;BME280;37448;51.588;7.248;2023-06-14T08:19:31;101023.16;;;25.70;27.75
51359;BME280;37448;51.588;7.248;2023-06-14T08:21:32;101040.25;;;25.45;28.51
51359;BME280;37448;51.588;7.248;2023-06-14T08:23:33;101029.91;;;25.29;28.06
51359;BME280;37448;51.588;7.248;2023-06-14T08:25:33;101041.09;;;24.51;29.35
51359;BME280;37448;51.588;7.248;2023-06-14T08:27:34;101037.34;;;24.89;29.61
51359;BME280;37448;51.588;7.248;2023-06-14T08:29:34;101042.91;;;24.75;29.12
51359;BME280;37448;51.588;7.248;2023-06-14T08:31:35;101041.38;;;25.65;27.63
51359;BME280;37448;51.588;7.248;2023-06-14T08:33:35;101046.28;;;25.24;28.71
51359;BME280;37448;51.588;7.248;2023-06-14T08:35:36;101039.03;;;24.79;29.15
51359;BME280;37448;51.588;7.248;2023-06-14T08:37:40;101039.00;;;25.15;29.01
51359;BME280;37448;51.588;7.248;2023-06-14T08:39:43;101028.56;;;25.12;28.50
51359;BME280;37448;51.588;7.248;2023-06-14T08:41:48;101038.94;;;25.73;28.28
51359;BME280;37448;51.588;7.248;2023-06-14T08:43:48;101030.38;;;26.14;27.33
51359;BME280;37448;51.588;7.248;2023-06-14T08:45:58;101031.03;;;24.90;28.99
51359;BME280;37448;51.588;7.248;2023-06-14T08:47:59;101026.81;;;25.69;28.77
51359;BME280;37448;51.588;7.248;2023-06-14T08:50:00;101027.53;;;26.38;26.65
51359;BME280;37448;51.588;7.248;2023-06-14T08:52:01;101037.41;;;26.15;27.51
51359;BME280;37448;51.588;7.248;2023-06-14T08:54:02;101015.47;;;25.88;27.57
51359;BME280;37448;51.588;7.248;2023-06-14T08:56:05;101035.75;;;26.02;26.99
51359;BME280;37448;51.588;7.248;2023-06-14T08:58:05;101037.25;;;25.72;27.79
51359;BME280;37448;51.588;7.248;2023-06-14T09:00:06;101030.72;;;25.06;28.41
51359;BME280;37448;51.588;7.248;2023-06-14T09:02:13;101032.59;;;25.86;27.49
51359;BME280;37448;51.588;7.248;2023-06-14T09:04:14;101034.13;;;24.73;28.96
51359;BME280;37448;51.588;7.248;2023-06-14T09:06:16;101045.19;;;25.04;27.93
51359;BME280;37448;51.588;7.248;2023-06-14T09:08:18;101039.13;;;25.13;27.90
51359;BME280;37448;51.588;7.248;2023-06-14T09:10:22;101037.50;;;25.58;27.81
51359;BME280;37448;51.588;7.248;2023-06-14T09:12:23;101038.22;;;25.48;27.76
51359;BME280;37448;51.588;7.248;2023-06-14T09:14:24;101049.59;;;26.07;26.71
51359;BME280;37448;51.588;7.248;2023-06-14T09:16:25;101045.59;;;26.57;26.29
51359;BME280;37448;51.588;7.248;2023-06-14T09:18:39;101043.63;;;26.59;26.13
51359;BME280;37448;51.588;7.248;2023-06-14T09:20:41;101045.72;;;26.23;25.98
51359;BME280;37448;51.588;7.248;2023-06-14T09:22:41;101041.59;;;26.19;26.34
51359;BME280;37448;51.588;7.248;2023-06-14T09:24:42;101054.00;;;26.20;26.23
51359;BME280;37448;51.588;7.248;2023-06-14T09:26:43;101049.75;;;26.50;26.44
51359;BME280;37448;51.588;7.248;2023-06-14T09:28:44;101051.16;;;26.33;26.56
51359;BME280;37448;51.588;7.248;2023-06-14T09:30:45;101053.97;;;26.97;25.85
51359;BME280;37448;51.588;7.248;2023-06-14T09:32:46;101056.19;;;26.91;26.40
51359;BME280;37448;51.588;7.248;2023-06-14T09:34:46;101043.88;;;27.10;25.94
51359;BME280;37448;51.588;7.248;2023-06-14T09:36:48;101045.91;;;26.43;26.38
51359;BME280;37448;51.588;7.248;2023-06-14T09:38:56;101048.31;;;27.42;25.75
51359;BME280;37448;51.588;7.248;2023-06-14T09:40:58;101058.66;;;27.26;24.79
51359;BME280;37448;51.588;7.248;2023-06-14T09:42:58;101058.00;;;27.12;25.36
51359;BME280;37448;51.588;7.248;2023-06-14T09:44:59;101059.31;;;26.97;25.53
51359;BME280;37448;51.588;7.248;2023-06-14T09:47:02;101052.03;;;26.87;26.02
51359;BME280;37448;51.588;7.248;2023-06-14T09:49:04;101054.72;;;26.22;27.48
51359;BME280;37448;51.588;7.248;2023-06-14T09:51:05;101056.25;;;27.01;26.46
51359;BME280;37448;51.588;7.248;2023-06-14T09:53:08;101055.56;;;26.55;27.03
51359;BME280;37448;51.588;7.248;2023-06-14T09:55:13;101053.41;;;27.45;25.91
51359;BME280;37448;51.588;7.248;2023-06-14T09:57:17;101058.44;;;27.39;25.32
51359;BME280;37448;51.588;7.248;2023-06-14T09:59:22;101061.78;;;27.31;25.99
51359;BME280;37448;51.588;7.248;2023-06-14T10:01:30;101055.91;;;27.37;25.93
51359;BME280;37448;51.588;7.248;2023-06-14T10:03:31;101060.06;;;27.30;26.24
51359;BME280;37448;51.588;7.248;2023-06-14T10:05:34;101055.09;;;27.46;26.20
51359;BME280;37448;51.588;7.248;2023-06-14T10:07:42;101042.03;;;27.32;26.36
51359;BME280;37448;51.588;7.248;2023-06-14T10:09:44;101058.94;;;27.75;25.83
51359;BME280;37448;51.588;7.248;2023-06-14T10:11:50;101058.03;;;27.64;24.73
51359;BME280;37448;51.588;7.248;2023-06-14T10:13:51;101061.53;;;27.96;25.15
51359;BME280;37448;51.588;7.248;2023-06-14T10:16:07;101052.41;;;28.18;24.84
51359;BME280;37448;51.588;7.248;2023-06-14T10:18:24;101047.25;;;27.02;26.60
51359;BME280;37448;51.588;7.248;2023-06-14T10:20:53;101053.56;;;27.75;26.13
51359;BME280;37448;51.588;7.248;2023-06-14T10:23:15;101050.56;;;27.68;26.07
51359;BME280;37448;51.588;7.248;2023-06-14T10:25:27;101054.50;;;28.15;25.79
51359;BME280;37448;51.588;7.248;2023-06-14T10:27:28;101060.25;;;28.00;25.45
51359;BME280;37448;51.588;7.248;2023-06-14T10:29:30;101050.25;;;27.61;24.96
51359;BME280;37448;51.588;7.248;2023-06-14T10:31:46;101057.34;;;26.99;25.70
51359;BME280;37448;51.588;7.248;2023-06-14T10:33:56;101053.56;;;27.22;25.82
51359;BME280;37448;51.588;7.248;2023-06-14T10:38:30;101063.31;;;26.70;26.20
51359;BME280;37448;51.588;7.248;2023-06-14T10:40:31;101050.84;;;26.91;26.43
51359;BME280;37448;51.588;7.248;2023-06-14T10:42:32;101039.16;;;26.81;26.82
51359;BME280;37448;51.588;7.248;2023-06-14T10:46:33;101048.56;;;27.39;26.05